createdAt,value
2023-04-25T00:00:10.545Z,8.50
2023-04-25T00:02:39.160Z,8.60
2023-04-25T00:06:27.534Z,8.60
2023-04-25T00:08:57.491Z,8.50
2023-04-25T00:11:27.617Z,8.60
2023-04-25T00:13:58.578Z,8.60
2023-04-25T00:16:36.137Z,8.60
2023-04-25T00:19:06.753Z,8.50
2023-04-25T00:21:35.698Z,8.50
2023-04-25T00:24:07.204Z,8.50
2023-04-25T00:26:38.402Z,8.50
2023-04-25T00:29:07.679Z,8.40
2023-04-25T00:31:36.394Z,8.40
2023-04-25T00:34:05.870Z,8.30
2023-04-25T00:36:37.586Z,8.20
2023-04-25T00:39:11.637Z,8.20
2023-04-25T00:41:49.174Z,8.30
2023-04-25T00:44:19.856Z,8.20
2023-04-25T00:46:55.387Z,8.20
2023-04-25T00:49:25.047Z,8.20
2023-04-25T00:51:54.117Z,8.10
2023-04-25T00:54:22.963Z,8.00
2023-04-25T00:56:51.831Z,8.00
2023-04-25T00:59:23.342Z,7.90
2023-04-25T01:01:54.471Z,8.00
2023-04-25T01:04:23.550Z,8.00
2023-04-25T01:06:53.619Z,8.00
2023-04-25T01:09:25.256Z,8.00
2023-04-25T01:11:53.865Z,8.00
2023-04-25T01:14:22.538Z,7.90
2023-04-25T01:16:54.232Z,7.90
2023-04-25T01:19:25.151Z,7.90
2023-04-25T01:22:02.673Z,7.80
2023-04-25T01:24:35.525Z,7.90
2023-04-25T01:27:08.177Z,7.90
2023-04-25T01:29:38.360Z,7.90
2023-04-25T01:32:09.744Z,7.90
2023-04-25T01:34:39.446Z,7.90
2023-04-25T01:37:10.766Z,7.80
2023-04-25T01:39:47.871Z,7.80
2023-04-25T01:42:24.286Z,7.80
2023-04-25T01:44:52.839Z,7.70
2023-04-25T01:47:21.112Z,7.70
2023-04-25T01:49:50.541Z,7.60
2023-04-25T01:52:30.497Z,7.60
2023-04-25T01:55:02.681Z,7.60
2023-04-25T01:57:31.782Z,7.50
2023-04-25T02:00:10.734Z,7.50
2023-04-25T02:02:39.391Z,7.40
2023-04-25T02:05:10.854Z,7.40
2023-04-25T02:07:40.723Z,7.40
2023-04-25T02:10:12.236Z,7.30
2023-04-25T02:12:43.177Z,7.20
2023-04-25T02:15:12.601Z,7.00
2023-04-25T02:17:50.987Z,7.00
2023-04-25T02:20:28.429Z,7.00
2023-04-25T02:22:58.257Z,7.10
2023-04-25T02:25:35.359Z,7.20
2023-04-25T02:28:06.628Z,7.10
2023-04-25T02:30:39.960Z,7.10
2023-04-25T02:33:07.161Z,7.00
2023-04-25T02:35:37.639Z,7.00
2023-04-25T02:38:05.914Z,7.00
2023-04-25T02:40:34.248Z,7.00
2023-04-25T02:43:04.956Z,7.00
2023-04-25T02:45:35.799Z,6.90
2023-04-25T02:48:05.099Z,6.90
2023-04-25T02:50:34.349Z,6.90
2023-04-25T02:53:02.624Z,6.80
2023-04-25T02:55:32.106Z,6.70
2023-04-25T02:58:00.310Z,6.60
2023-04-25T03:00:31.352Z,6.60
2023-04-25T03:02:59.925Z,6.60
2023-04-25T03:05:30.358Z,6.50
2023-04-25T03:08:00.959Z,6.50
2023-04-25T03:10:29.642Z,6.50
2023-04-25T03:13:00.264Z,6.50
2023-04-25T03:15:29.829Z,6.50
2023-04-25T03:18:06.873Z,6.50
2023-04-25T03:20:43.243Z,6.50
2023-04-25T03:23:12.930Z,6.50
2023-04-25T03:25:43.111Z,6.50
2023-04-25T03:28:13.185Z,6.60
2023-04-25T03:30:44.144Z,6.60
2023-04-25T03:33:12.662Z,6.50
2023-04-25T03:35:43.114Z,6.50
2023-04-25T03:38:12.471Z,6.30
2023-04-25T03:40:42.143Z,6.10
2023-04-25T03:43:11.359Z,6.00
2023-04-25T03:45:39.863Z,6.00
2023-04-25T03:48:09.158Z,6.00
2023-04-25T03:50:39.559Z,6.10
2023-04-25T03:53:09.908Z,6.20
2023-04-25T03:55:40.031Z,6.30
2023-04-25T03:58:09.880Z,6.30
2023-04-25T04:00:38.553Z,6.30
2023-04-25T04:03:07.281Z,6.20
2023-04-25T04:05:39.902Z,6.20
2023-04-25T04:08:11.974Z,6.20
2023-04-25T04:10:40.323Z,6.30
2023-04-25T04:13:08.554Z,6.20
2023-04-25T04:15:45.130Z,6.10
2023-04-25T04:18:22.154Z,6.10
2023-04-25T04:20:51.055Z,6.00
2023-04-25T04:23:18.709Z,5.90
2023-04-25T04:25:49.408Z,6.00
2023-04-25T04:28:19.549Z,6.40
2023-04-25T04:30:56.121Z,6.60
2023-04-25T04:33:26.892Z,7.20
2023-04-25T04:36:07.495Z,8.30
2023-04-25T04:38:41.838Z,9.40
2023-04-25T04:41:12.500Z,10.40
2023-04-25T04:43:41.385Z,10.60
2023-04-25T04:46:12.005Z,9.80
2023-04-25T04:48:50.572Z,10.50
2023-04-25T04:51:20.206Z,11.50
2023-04-25T04:53:51.441Z,11.50
2023-04-25T04:56:23.031Z,11.40
2023-04-25T04:58:54.554Z,11.30
2023-04-25T05:01:23.745Z,11.50
2023-04-25T05:03:53.327Z,12.90
2023-04-25T05:06:22.149Z,13.80
2023-04-25T05:08:51.452Z,15.50
2023-04-25T05:11:20.830Z,16.60
2023-04-25T05:13:51.649Z,16.20
2023-04-25T05:16:22.904Z,15.60
2023-04-25T05:18:51.654Z,14.30
2023-04-25T05:21:22.046Z,14.60
2023-04-25T05:23:51.862Z,15.80
2023-04-25T05:26:25.467Z,18.00
2023-04-25T05:29:02.573Z,19.60
2023-04-25T05:31:39.029Z,20.30
2023-04-25T05:34:08.290Z,19.90
2023-04-25T05:36:45.031Z,20.80
2023-04-25T05:39:15.977Z,21.40
2023-04-25T05:41:47.993Z,22.30
2023-04-25T05:44:19.633Z,22.20
2023-04-25T05:46:47.882Z,22.50
2023-04-25T05:49:25.617Z,23.50
2023-04-25T05:51:54.930Z,24.80
2023-04-25T05:54:24.802Z,25.90
2023-04-25T05:56:53.598Z,27.00
2023-04-25T05:59:23.777Z,27.50
2023-04-25T06:01:54.700Z,27.70
2023-04-25T06:04:30.305Z,27.70
2023-04-25T06:06:59.205Z,28.20
2023-04-25T06:09:28.882Z,28.50
2023-04-25T06:11:57.135Z,29.00
2023-04-25T06:14:27.250Z,29.60
2023-04-25T06:16:58.359Z,29.50
2023-04-25T06:19:29.803Z,29.70
2023-04-25T06:22:00.349Z,29.80
2023-04-25T06:24:31.695Z,29.90
2023-04-25T06:27:02.167Z,29.60
2023-04-25T06:29:32.326Z,28.90
2023-04-25T06:32:01.704Z,29.20
2023-04-25T06:34:34.843Z,29.60
2023-04-25T06:37:11.551Z,29.50
2023-04-25T06:39:48.658Z,29.30
2023-04-25T06:42:17.709Z,29.40
2023-04-25T06:44:48.855Z,29.00
2023-04-25T06:47:17.574Z,29.50
2023-04-25T06:49:46.313Z,30.10
2023-04-25T06:52:15.505Z,30.50
2023-04-25T06:54:44.826Z,30.40
2023-04-25T06:57:19.205Z,29.30
2023-04-25T06:59:48.876Z,27.10
2023-04-25T07:02:24.590Z,25.20
2023-04-25T07:05:01.194Z,23.60
2023-04-25T07:07:38.302Z,22.40
2023-04-25T07:10:18.131Z,21.60
2023-04-25T07:12:54.290Z,20.90
2023-04-25T07:15:26.964Z,20.20
2023-04-25T07:57:29.770Z,21.50
2023-04-25T07:59:56.934Z,21.70
2023-04-25T08:02:27.913Z,21.90
2023-04-25T08:04:57.955Z,22.10
2023-04-25T08:07:26.799Z,22.20
2023-04-25T08:09:56.455Z,21.90
2023-04-25T08:12:37.850Z,21.90
2023-04-25T08:15:11.344Z,21.90
2023-04-25T08:17:42.576Z,22.10
2023-04-25T08:20:20.006Z,22.20
2023-04-25T08:22:47.349Z,22.20
2023-04-25T08:25:14.519Z,22.30
2023-04-25T08:27:42.593Z,22.40
2023-04-25T08:30:21.528Z,22.50
2023-04-25T08:32:59.875Z,22.60
2023-04-25T08:35:28.506Z,22.30
2023-04-25T08:37:57.948Z,22.20
2023-04-25T08:40:33.872Z,22.40
2023-04-25T08:43:05.419Z,22.20
2023-04-25T08:45:35.012Z,21.70
2023-04-25T08:48:11.438Z,21.30
2023-04-25T08:50:59.704Z,21.20
2023-04-25T08:53:38.515Z,21.40
2023-04-25T08:56:12.991Z,21.40
2023-04-25T08:58:55.745Z,21.20
2023-04-25T09:01:26.934Z,20.90
2023-04-25T09:03:55.925Z,20.60
2023-04-25T09:06:32.226Z,20.20
2023-04-25T09:09:14.823Z,19.80
2023-04-25T09:11:43.396Z,19.60
2023-04-25T09:14:36.183Z,19.60
2023-04-25T09:17:11.769Z,19.60
2023-04-25T09:19:45.239Z,19.80
2023-04-25T09:22:15.746Z,19.90
2023-04-25T09:24:51.487Z,20.00
2023-04-25T09:27:29.252Z,19.90
2023-04-25T09:30:03.505Z,19.90
2023-04-25T09:32:32.014Z,19.80
2023-04-25T09:35:08.535Z,19.70
2023-04-25T09:37:39.440Z,19.90
2023-04-25T09:40:12.466Z,19.90
2023-04-25T09:42:44.393Z,19.90
2023-04-25T09:45:16.173Z,19.90
2023-04-25T09:47:49.460Z,19.90
2023-04-25T09:50:21.352Z,19.90
2023-04-25T09:53:07.392Z,20.00
2023-04-25T09:55:38.012Z,20.20
2023-04-25T09:58:12.805Z,20.50
2023-04-25T10:00:43.827Z,20.60
2023-04-25T10:03:22.080Z,20.70
2023-04-25T10:05:56.708Z,20.60
2023-04-25T10:08:35.174Z,20.40
2023-04-25T10:11:11.017Z,20.10
2023-04-25T10:13:39.876Z,20.00
2023-04-25T10:16:12.663Z,20.20
2023-04-25T10:18:50.210Z,20.50
2023-04-25T10:21:25.918Z,20.70
2023-04-25T10:23:56.908Z,20.80
2023-04-25T10:26:31.292Z,21.00
2023-04-25T10:29:13.111Z,21.00
2023-04-25T10:31:56.950Z,21.00
2023-04-25T10:34:48.972Z,21.00
2023-04-25T10:37:16.623Z,20.80
2023-04-25T10:39:45.236Z,20.60
2023-04-25T10:42:15.615Z,20.40
2023-04-25T10:45:11.197Z,20.30
2023-04-25T10:47:46.769Z,20.40
2023-04-25T10:50:23.507Z,20.30
2023-04-25T10:52:56.670Z,20.20
2023-04-25T10:55:26.175Z,20.00
2023-04-25T11:00:48.264Z,19.90
2023-04-25T11:03:27.865Z,19.80
2023-04-25T11:05:58.523Z,19.70
2023-04-25T11:08:55.899Z,19.80
2023-04-25T11:11:26.266Z,19.70
2023-04-25T11:13:55.291Z,19.70
2023-04-25T11:16:35.029Z,19.80
2023-04-25T11:19:05.619Z,19.70
2023-04-25T11:21:41.011Z,19.40
2023-04-25T11:24:17.787Z,19.10
2023-04-25T11:26:50.346Z,19.00
2023-04-25T11:29:18.880Z,18.70
2023-04-25T11:31:47.229Z,17.90
2023-04-25T11:34:21.533Z,17.40
2023-04-25T11:36:56.954Z,16.80
2023-04-25T11:39:34.428Z,16.60
2023-04-25T11:42:07.997Z,16.30
2023-04-25T11:44:42.696Z,15.50
2023-04-25T11:47:10.687Z,15.20
2023-04-25T11:49:41.201Z,15.10
2023-04-25T11:52:15.054Z,15.00
2023-04-25T11:54:49.978Z,15.00
2023-04-25T11:57:24.362Z,15.10
2023-04-25T11:59:52.714Z,15.30
2023-04-25T12:02:31.037Z,15.60
2023-04-25T12:05:29.432Z,16.10
2023-04-25T12:08:28.514Z,16.40
2023-04-25T12:11:04.579Z,16.70
2023-04-25T12:13:37.058Z,16.90
2023-04-25T12:16:07.498Z,17.10
2023-04-25T12:18:40.315Z,17.20
2023-04-25T12:21:11.529Z,17.20
2023-04-25T12:23:43.309Z,17.30
2023-04-25T12:26:13.259Z,17.30
2023-04-25T12:28:52.558Z,17.10
2023-04-25T12:31:30.521Z,16.60
2023-04-25T12:34:07.509Z,16.60
2023-04-25T12:36:37.620Z,17.00
2023-04-25T12:39:10.620Z,17.30
2023-04-25T12:41:47.124Z,17.50
2023-04-25T12:44:16.459Z,17.90
2023-04-25T12:46:47.277Z,18.20
2023-04-25T12:49:19.050Z,18.40
2023-04-25T12:51:48.813Z,18.70
2023-04-25T12:54:18.496Z,18.90
2023-04-25T12:56:48.961Z,19.10
2023-04-25T12:59:19.927Z,19.30
2023-04-25T13:01:48.835Z,19.30
2023-04-25T13:04:22.413Z,19.40
2023-04-25T13:06:51.519Z,19.40
2023-04-25T13:09:19.898Z,19.50
2023-04-25T13:11:48.185Z,19.50
2023-04-25T13:14:26.372Z,19.50
2023-04-25T13:17:03.980Z,19.20
2023-04-25T13:19:35.581Z,19.00
2023-04-25T13:22:06.148Z,19.00
2023-04-25T13:24:38.154Z,18.90
2023-04-25T13:27:05.218Z,18.80
2023-04-25T13:29:37.346Z,18.80
2023-04-25T13:32:13.671Z,18.70
2023-04-25T13:34:43.477Z,18.70
2023-04-25T13:37:13.131Z,18.50
2023-04-25T13:39:42.771Z,18.50
2023-04-25T13:42:13.249Z,18.60
2023-04-25T13:44:41.809Z,18.60
2023-04-25T13:47:19.243Z,18.50
2023-04-25T13:49:50.156Z,18.50
2023-04-25T13:52:24.204Z,18.40
2023-04-25T13:54:52.551Z,18.40
2023-04-25T13:57:24.215Z,18.30
2023-04-25T13:59:52.059Z,18.30
2023-04-25T14:02:21.604Z,18.30
2023-04-25T14:04:49.605Z,18.30
2023-04-25T14:07:24.643Z,18.30
2023-04-25T14:09:54.695Z,18.20
2023-04-25T14:12:23.549Z,18.00
2023-04-25T14:14:52.174Z,18.00
2023-04-25T14:17:23.249Z,17.90
2023-04-25T14:19:51.933Z,17.90
2023-04-25T14:22:19.177Z,18.00
2023-04-25T14:24:48.495Z,18.00
2023-04-25T14:27:16.551Z,18.00
2023-04-25T14:29:49.080Z,18.00
2023-04-25T14:32:17.677Z,17.90
2023-04-25T14:34:57.856Z,17.90
2023-04-25T14:37:28.047Z,17.80
2023-04-25T14:40:02.646Z,17.60
2023-04-25T14:42:35.849Z,17.50
2023-04-25T14:45:17.146Z,17.40
2023-04-25T14:47:54.975Z,17.40
2023-04-25T14:50:27.528Z,17.20
2023-04-25T14:53:03.604Z,17.00
2023-04-25T14:55:32.396Z,16.80
2023-04-25T14:58:02.663Z,16.60
2023-04-25T15:00:36.459Z,16.50
2023-04-25T15:03:04.374Z,16.50
2023-04-25T15:05:32.581Z,16.50
2023-04-25T15:08:01.945Z,16.40
2023-04-25T15:10:32.572Z,16.50
2023-04-25T15:13:03.758Z,16.50
2023-04-25T15:15:31.559Z,16.50
2023-04-25T15:18:01.137Z,16.20
2023-04-25T15:20:30.570Z,15.80
2023-04-25T15:22:59.752Z,15.90
2023-04-25T15:25:30.848Z,15.90
2023-04-25T15:27:59.401Z,16.00
2023-04-25T15:30:28.011Z,16.10
2023-04-25T15:32:56.413Z,16.20
2023-04-25T15:35:25.303Z,16.20
2023-04-25T15:37:55.582Z,16.30
2023-04-25T15:40:30.482Z,16.30
2023-04-25T15:43:00.431Z,16.30
2023-04-25T15:45:29.951Z,16.20
2023-04-25T15:47:59.450Z,16.10
2023-04-25T15:50:28.675Z,16.00
2023-04-25T15:52:58.155Z,15.90
2023-04-25T15:55:28.206Z,15.90
2023-04-25T15:57:59.395Z,15.80
2023-04-25T16:00:31.429Z,15.70
2023-04-25T16:03:00.204Z,15.70
2023-04-25T16:05:31.961Z,15.70
2023-04-25T16:08:04.160Z,15.80
2023-04-25T16:10:34.663Z,15.80
2023-04-25T16:13:07.882Z,15.70
2023-04-25T16:15:38.053Z,15.70
2023-04-25T16:18:08.907Z,15.70
2023-04-25T16:20:39.096Z,15.70
2023-04-25T16:23:06.642Z,15.60
2023-04-25T16:25:37.160Z,15.60
2023-04-25T16:28:05.636Z,15.40
2023-04-25T16:30:35.335Z,15.40
2023-04-25T16:33:05.518Z,15.50
2023-04-25T16:35:34.158Z,15.50
2023-04-25T16:38:05.114Z,15.40
2023-04-25T16:40:33.885Z,15.40
2023-04-25T16:43:01.289Z,15.40
2023-04-25T16:45:32.139Z,15.40
2023-04-25T16:48:01.743Z,15.40
2023-04-25T16:50:31.602Z,15.30
2023-04-25T16:53:00.062Z,15.20
2023-04-25T16:55:28.547Z,14.90
2023-04-25T16:57:58.858Z,14.60
2023-04-25T17:00:36.265Z,14.50
2023-04-25T17:03:10.669Z,14.60
2023-04-25T17:05:45.061Z,14.60
2023-04-25T17:08:14.189Z,14.60
2023-04-25T17:10:45.840Z,14.50
2023-04-25T17:13:15.959Z,14.30
2023-04-25T17:15:45.758Z,14.30
2023-04-25T17:18:17.653Z,14.20
2023-04-25T17:20:50.241Z,14.00
2023-04-25T17:23:20.938Z,13.70
2023-04-25T17:25:52.020Z,13.70
2023-04-25T17:28:20.689Z,13.80
2023-04-25T17:30:48.332Z,13.80
2023-04-25T17:33:18.017Z,13.80
2023-04-25T17:35:46.607Z,13.60
2023-04-25T17:38:18.414Z,13.50
2023-04-25T17:40:48.065Z,13.40
2023-04-25T17:43:16.993Z,13.20
2023-04-25T17:45:46.292Z,13.00
2023-04-25T17:48:16.621Z,12.90
2023-04-25T17:50:45.207Z,12.80
2023-04-25T17:53:12.594Z,12.50
2023-04-25T17:55:44.960Z,12.40
2023-04-25T17:58:16.356Z,12.30
2023-04-25T18:00:49.015Z,12.00
2023-04-25T18:03:19.817Z,11.90
2023-04-25T18:05:51.177Z,11.70
2023-04-25T18:08:27.193Z,11.60
2023-04-25T18:11:05.431Z,11.50
2023-04-25T18:13:34.204Z,11.40
2023-04-25T18:16:02.350Z,11.40
2023-04-25T18:18:42.093Z,11.30
2023-04-25T18:21:11.235Z,11.20
2023-04-25T18:23:46.950Z,11.10
2023-04-25T18:26:17.402Z,11.00
2023-04-25T18:28:48.579Z,11.00
2023-04-25T18:31:24.034Z,10.90
2023-04-25T18:33:54.958Z,10.80
2023-04-25T18:36:23.511Z,10.70
2023-04-25T18:38:56.645Z,10.60
2023-04-25T18:41:52.099Z,10.50
2023-04-25T18:44:40.882Z,10.40
2023-04-25T18:47:11.740Z,10.40
2023-04-25T18:49:40.720Z,10.40
2023-04-25T18:52:13.124Z,10.30
2023-04-25T18:54:43.123Z,10.30
2023-04-25T18:57:15.577Z,10.30
2023-04-25T18:59:48.690Z,10.20
2023-04-25T19:02:23.680Z,10.20
2023-04-25T19:04:57.141Z,10.20
2023-04-25T19:07:33.000Z,10.10
2023-04-25T19:10:04.568Z,10.10
2023-04-25T19:12:37.284Z,10.10
2023-04-25T19:15:07.652Z,10.10
2023-04-25T19:17:40.085Z,10.10
2023-04-25T19:20:09.377Z,10.00
2023-04-25T19:22:39.148Z,10.00
2023-04-25T19:25:10.313Z,10.00
2023-04-25T19:27:42.630Z,10.00
2023-04-25T19:30:14.230Z,9.90
2023-04-25T19:32:41.733Z,9.90
2023-04-25T19:35:12.391Z,9.80
2023-04-25T19:37:48.628Z,9.70
2023-04-25T19:40:18.599Z,9.70
2023-04-25T19:42:47.613Z,9.70
2023-04-25T19:45:16.169Z,9.60
2023-04-25T19:47:45.422Z,9.60
2023-04-25T19:50:15.744Z,9.60
2023-04-25T19:52:44.365Z,9.60
2023-04-25T19:55:12.597Z,9.60
2023-04-25T19:57:41.645Z,9.60
2023-04-25T20:00:19.942Z,9.50
2023-04-25T20:02:53.400Z,9.50
2023-04-25T20:05:26.704Z,9.50
2023-04-25T20:07:58.946Z,9.50
2023-04-25T20:10:28.555Z,9.40
2023-04-25T20:12:57.220Z,9.30
2023-04-25T20:15:28.046Z,9.10
2023-04-25T20:17:56.656Z,9.00
2023-04-25T20:20:27.946Z,9.10
2023-04-25T20:22:56.596Z,9.10
2023-04-25T20:25:29.330Z,9.10
2023-04-25T20:28:05.806Z,9.00
2023-04-25T20:30:41.809Z,8.90
2023-04-25T20:33:17.933Z,8.90
2023-04-25T20:35:48.446Z,8.90
2023-04-25T20:41:01.268Z,8.80
2023-04-25T20:43:31.713Z,8.80
2023-04-25T20:46:00.906Z,8.80
2023-04-25T20:48:38.111Z,8.80
2023-04-25T20:51:24.383Z,8.70
2023-04-25T20:53:52.929Z,8.90
2023-04-25T20:56:24.783Z,8.80
2023-04-25T20:59:05.827Z,8.80
2023-04-25T21:01:38.691Z,8.80
2023-04-25T21:04:09.743Z,8.70
2023-04-25T21:06:39.872Z,8.70
2023-04-25T21:09:10.332Z,8.70
2023-04-25T21:11:40.901Z,8.60
2023-04-25T21:14:10.930Z,8.60
2023-04-25T21:16:39.275Z,8.60
2023-04-25T21:19:07.681Z,8.60
2023-04-25T21:21:40.146Z,8.40
2023-04-25T21:24:09.790Z,8.30
2023-04-25T21:26:36.880Z,8.30
2023-04-25T21:29:06.231Z,8.30
2023-04-25T21:31:38.154Z,8.30
2023-04-25T21:34:14.794Z,8.30
2023-04-25T21:36:46.219Z,8.30
2023-04-25T21:39:23.266Z,8.40
2023-04-25T21:41:51.908Z,8.40
2023-04-25T21:44:19.228Z,8.50
2023-04-25T21:46:46.921Z,8.60
2023-04-25T21:49:15.133Z,8.60
2023-04-25T21:51:44.443Z,8.60
2023-04-25T21:54:18.566Z,8.50
2023-04-25T21:56:46.980Z,8.40
2023-04-25T21:59:14.362Z,8.40
2023-04-25T22:01:45.685Z,8.40
2023-04-25T22:04:20.022Z,8.40
2023-04-25T22:06:57.471Z,8.40
2023-04-25T22:09:28.474Z,8.40
2023-04-25T22:12:02.300Z,8.40
2023-04-25T22:14:32.926Z,8.40
2023-04-25T22:17:03.640Z,8.40
2023-04-25T22:19:34.763Z,8.40
2023-04-25T22:22:04.958Z,8.40
2023-04-25T22:24:33.328Z,8.30
2023-04-25T22:27:02.625Z,8.20
2023-04-25T22:29:31.471Z,8.20
2023-04-25T22:32:03.370Z,8.20
2023-04-25T22:34:33.953Z,8.20
2023-04-25T22:37:01.029Z,8.20
2023-04-25T22:39:29.346Z,8.20
2023-04-25T22:41:58.826Z,8.20
2023-04-25T22:44:29.012Z,8.20
2023-04-25T22:46:59.747Z,8.10
2023-04-25T22:49:29.500Z,8.10
2023-04-25T22:51:57.613Z,8.10
2023-04-25T22:54:26.579Z,8.00
2023-04-25T22:56:56.221Z,8.00
2023-04-25T22:59:23.376Z,7.90
2023-04-25T23:01:53.582Z,7.80
2023-04-25T23:04:25.482Z,7.80
2023-04-25T23:06:54.155Z,7.70
2023-04-25T23:09:22.602Z,7.70
2023-04-25T23:11:54.938Z,7.70
2023-04-25T23:14:24.905Z,7.70
2023-04-25T23:16:58.524Z,7.70
2023-04-25T23:19:29.539Z,7.70
2023-04-25T23:22:01.020Z,7.60
2023-04-25T23:24:31.339Z,7.60
2023-04-25T23:27:00.188Z,7.60
2023-04-25T23:29:28.671Z,7.60
2023-04-25T23:32:00.177Z,7.70
2023-04-25T23:34:32.945Z,7.80
2023-04-25T23:37:09.158Z,7.80
2023-04-25T23:39:46.099Z,7.80
2023-04-25T23:42:14.785Z,7.70
2023-04-25T23:44:45.221Z,7.50
2023-04-25T23:47:18.135Z,7.40
2023-04-25T23:49:49.472Z,7.40
2023-04-25T23:52:19.721Z,7.30
2023-04-25T23:54:48.018Z,7.30
2023-04-25T23:57:17.933Z,7.40
2023-04-25T23:59:46.781Z,7.40
